Time;durP1;ratioP1;P1;durP2;ratioP2;P2;SDS_P1;SDS_P2;PMS_P1;PMS_P2;Temp;Humidity;BMP_temperature;BMP_pressure;BME280_temperature;BME280_humidity;BME280_pressure;Samples;Min_cycle;Max_cycle;Signal;HPM_P1;HPM_P2
2022/12/31 00:01:32;;;;;;;30.70;7.65;;;16.00;90.40;;;;;;5052584;28;20115;-88
2022/12/31 00:03:58;;;;;;;32.33;6.38;;;16.00;90.50;;;;;;5052709;28;20017;-88
2022/12/31 00:06:28;;;;;;;16.92;6.13;;;16.00;90.50;;;;;;5059360;28;20028;-88
2022/12/31 00:08:55;;;;;;;26.23;6.47;;;16.00;90.50;;;;;;5073622;28;20439;-89
2022/12/31 00:11:22;;;;;;;24.92;6.55;;;16.00;90.50;;;;;;5072209;28;20060;-88
2022/12/31 00:13:49;;;;;;;22.40;6.97;;;15.90;90.50;;;;;;5072534;28;20025;-88
2022/12/31 00:16:20;;;;;;;23.60;6.40;;;16.00;90.50;;;;;;5052406;28;20390;-89
2022/12/31 00:18:48;;;;;;;26.35;6.88;;;15.90;90.50;;;;;;5052153;28;20483;-88
2022/12/31 00:21:14;;;;;;;22.35;6.45;;;15.90;90.50;;;;;;5052211;28;20070;-88
2022/12/31 00:23:41;;;;;;;23.83;6.28;;;16.00;90.50;;;;;;5052221;28;20044;-88
2022/12/31 00:26:12;;;;;;;18.40;6.45;;;16.00;90.50;;;;;;5053639;28;20498;-88
2022/12/31 00:28:38;;;;;;;18.75;5.85;;;16.00;90.50;;;;;;5052069;28;20029;-87
2022/12/31 00:31:05;;;;;;;19.38;5.93;;;16.00;90.50;;;;;;5059493;28;20021;-87
2022/12/31 00:33:31;;;;;;;22.73;5.63;;;16.00;90.50;;;;;;5052006;28;20032;-88
2022/12/31 00:36:16;;;;;;;16.75;6.10;;;16.00;90.50;;;;;;5051908;28;20020;-88
2022/12/31 00:38:43;;;;;;;16.85;5.88;;;16.00;90.50;;;;;;5053424;28;20087;-86
2022/12/31 00:41:10;;;;;;;15.05;5.68;;;15.90;90.50;;;;;;5063481;28;20074;-88
2022/12/31 00:43:35;;;;;;;15.75;5.47;;;16.00;90.60;;;;;;5055432;28;20165;-88
2022/12/31 00:46:02;;;;;;;27.52;6.10;;;16.00;90.60;;;;;;5070444;28;20482;-88
2022/12/31 00:48:28;;;;;;;19.67;5.60;;;16.00;90.60;;;;;;5072903;28;20020;-88
2022/12/31 00:50:54;;;;;;;17.33;5.25;;;16.00;90.60;;;;;;5071383;28;20029;-87
2022/12/31 00:53:21;;;;;;;18.52;5.60;;;16.00;90.60;;;;;;5063869;28;20028;-88
2022/12/31 00:55:46;;;;;;;14.10;5.57;;;15.90;90.60;;;;;;5072752;28;20035;-89
2022/12/31 00:58:12;;;;;;;14.25;5.45;;;16.00;90.60;;;;;;5071716;28;20029;-87
2022/12/31 01:00:38;;;;;;;13.43;4.93;;;15.90;90.60;;;;;;5071416;28;20025;-88
2022/12/31 01:03:05;;;;;;;16.63;5.05;;;16.00;90.60;;;;;;5071475;28;20029;-88
2022/12/31 01:05:31;;;;;;;19.98;5.43;;;16.00;90.60;;;;;;5071369;28;20029;-88
2022/12/31 01:07:56;;;;;;;15.77;5.03;;;16.00;90.60;;;;;;5071482;28;20020;-88
2022/12/31 01:13:07;;;;;;;21.15;4.97;;;16.00;90.60;;;;;;5072880;28;20162;-87
2022/12/31 01:15:34;;;;;;;13.27;5.28;;;16.00;90.60;;;;;;5071364;28;20044;-88
2022/12/31 01:18:01;;;;;;;13.90;4.78;;;16.00;90.60;;;;;;5071448;28;20119;-88
2022/12/31 01:20:27;;;;;;;16.35;5.38;;;16.00;90.60;;;;;;5058396;28;20029;-87
2022/12/31 01:22:52;;;;;;;18.63;4.57;;;16.00;90.70;;;;;;5060516;28;20036;-88
2022/12/31 01:25:18;;;;;;;12.57;4.95;;;16.00;90.60;;;;;;5071123;28;20082;-88
2022/12/31 01:27:44;;;;;;;15.38;5.05;;;16.00;90.60;;;;;;5065109;28;20486;-87
2022/12/31 01:30:10;;;;;;;16.38;4.95;;;16.00;90.70;;;;;;5051275;28;20040;-89
2022/12/31 01:32:35;;;;;;;10.20;4.35;;;16.00;90.70;;;;;;5060733;28;20252;-88
2022/12/31 01:35:01;;;;;;;10.90;4.10;;;16.00;90.70;;;;;;5067889;28;20057;-88
2022/12/31 01:37:27;;;;;;;17.45;4.53;;;16.00;90.70;;;;;;5051932;28;20032;-89
2022/12/31 01:39:52;;;;;;;17.17;4.28;;;16.00;90.70;;;;;;5050993;28;20064;-89
2022/12/31 01:42:18;;;;;;;13.80;5.10;;;16.00;90.70;;;;;;5062624;28;20055;-88
2022/12/31 01:44:49;;;;;;;13.75;5.13;;;16.00;90.70;;;;;;5071391;28;20463;-88
2022/12/31 01:47:19;;;;;;;11.13;4.13;;;16.00;90.70;;;;;;5069121;28;20021;-88
2022/12/31 01:49:56;;;;;;;12.45;4.57;;;16.00;90.70;;;;;;5067650;28;20028;-88
2022/12/31 01:52:29;;;;;;;12.65;5.78;;;16.00;90.80;;;;;;5075222;28;20039;-88
2022/12/31 01:55:12;;;;;;;12.80;4.60;;;16.00;90.70;;;;;;5076459;28;20051;-88
2022/12/31 01:57:38;;;;;;;8.90;4.53;;;16.00;90.80;;;;;;5076442;28;20090;-87
2022/12/31 02:00:05;;;;;;;11.65;4.43;;;16.00;90.90;;;;;;5062135;28;20478;-88
2022/12/31 02:02:30;;;;;;;13.07;4.55;;;16.00;91.00;;;;;;5059933;28;20075;-85
2022/12/31 02:04:58;;;;;;;22.10;5.07;;;16.00;91.00;;;;;;5055424;28;20025;-85
2022/12/31 02:07:24;;;;;;;24.15;5.53;;;16.00;91.30;;;;;;5061665;28;20029;-89
2022/12/31 02:09:51;;;;;;;29.80;5.72;;;16.00;91.20;;;;;;5074822;28;20028;-88
2022/12/31 02:12:16;;;;;;;20.42;5.03;;;16.10;91.20;;;;;;5074918;28;20028;-87
2022/12/31 02:14:46;;;;;;;14.98;5.05;;;16.10;91.20;;;;;;5074791;28;20028;-86
2022/12/31 02:17:36;;;;;;;10.60;4.15;;;16.10;91.10;;;;;;5074901;28;20099;-88
2022/12/31 02:20:18;;;;;;;16.75;4.38;;;16.10;91.20;;;;;;5074222;28;20036;-87
2022/12/31 02:23:21;;;;;;;12.40;4.13;;;16.10;91.10;;;;;;5054433;28;20013;-89
2022/12/31 02:26:19;;;;;;;17.48;4.60;;;16.10;91.10;;;;;;5054541;28;20029;-88
2022/12/31 02:28:53;;;;;;;17.83;4.75;;;16.00;91.10;;;;;;5054452;28;20397;-88
2022/12/31 02:31:33;;;;;;;13.15;4.57;;;16.10;91.50;;;;;;5063555;28;20024;-88
2022/12/31 02:34:06;;;;;;;16.95;4.07;;;16.10;91.10;;;;;;5074432;28;20070;-88
2022/12/31 02:36:37;;;;;;;13.23;4.65;;;16.10;91.10;;;;;;5070918;28;20486;-88
2022/12/31 02:39:04;;;;;;;20.63;5.30;;;16.00;91.10;;;;;;5058556;28;20100;-88
2022/12/31 02:41:48;;;;;;;14.48;4.50;;;16.10;91.10;;;;;;5074007;28;20021;-87
2022/12/31 02:44:27;;;;;;;14.77;4.40;;;16.00;91.10;;;;;;5074198;28;20032;-88
2022/12/31 02:47:12;;;;;;;9.77;3.58;;;16.10;91.20;;;;;;5074014;28;20028;-87
2022/12/31 02:49:49;;;;;;;21.35;4.22;;;16.10;91.10;;;;;;5054230;28;20032;-87
2022/12/31 02:52:24;;;;;;;11.02;3.75;;;16.10;91.10;;;;;;5053973;28;20025;-88
2022/12/31 02:55:08;;;;;;;15.65;4.20;;;16.10;91.20;;;;;;5073496;28;20033;-88
2022/12/31 02:58:00;;;;;;;13.57;3.58;;;16.00;91.10;;;;;;5061629;28;20478;-88
2022/12/31 03:03:13;;;;;;;11.50;4.18;;;16.10;91.20;;;;;;5054989;28;20036;-88
2022/12/31 03:05:42;;;;;;;17.92;4.18;;;16.00;91.20;;;;;;5058312;28;20029;-87
2022/12/31 03:08:08;;;;;;;12.40;4.32;;;16.10;91.20;;;;;;5073837;28;20024;-88
2022/12/31 03:10:34;;;;;;;13.68;3.63;;;16.10;91.20;;;;;;5074833;28;20027;-88
2022/12/31 03:13:00;;;;;;;14.48;3.70;;;16.10;91.20;;;;;;5066370;28;20398;-89
2022/12/31 03:15:28;;;;;;;14.90;4.13;;;16.10;91.20;;;;;;5053556;28;20115;-88
2022/12/31 03:18:14;;;;;;;11.98;3.78;;;16.10;91.30;;;;;;5054805;28;20028;-87
2022/12/31 03:23:38;;;;;;;11.38;3.22;;;16.10;91.30;;;;;;5054881;28;20422;-87
2022/12/31 03:26:09;;;;;;;13.30;3.60;;;16.10;91.20;;;;;;5068200;28;20027;-88
2022/12/31 03:28:35;;;;;;;13.35;4.32;;;16.10;91.20;;;;;;5073273;28;20028;-88
2022/12/31 03:31:02;;;;;;;14.50;3.88;;;16.10;91.20;;;;;;5073072;28;20047;-88
2022/12/31 03:33:34;;;;;;;8.82;3.42;;;16.10;91.20;;;;;;5073180;28;20025;-89
2022/12/31 03:36:04;;;;;;;12.43;3.42;;;16.10;91.30;;;;;;5073231;28;20028;-88
2022/12/31 03:38:30;;;;;;;18.73;4.30;;;16.10;91.30;;;;;;5073266;28;20102;-88
2022/12/31 03:40:55;;;;;;;15.63;3.72;;;16.10;91.30;;;;;;5072892;28;20482;-87
2022/12/31 03:43:21;;;;;;;17.73;3.50;;;16.00;91.20;;;;;;5073069;28;20547;-88
2022/12/31 03:45:51;;;;;;;12.85;3.03;;;16.10;91.30;;;;;;5073110;28;20020;-89
2022/12/31 03:48:18;;;;;;;7.25;3.60;;;16.00;91.20;;;;;;5065310;28;20017;-88
2022/12/31 03:50:44;;;;;;;6.85;3.28;;;16.10;91.30;;;;;;5052846;28;20068;-88
2022/12/31 03:53:09;;;;;;;15.98;3.50;;;16.10;91.30;;;;;;5052910;28;20064;-89
2022/12/31 03:55:35;;;;;;;7.43;2.83;;;16.10;91.30;;;;;;5052876;28;20021;-88
2022/12/31 03:58:00;;;;;;;9.65;3.53;;;16.00;91.20;;;;;;5053032;28;20124;-87
2022/12/31 04:00:26;;;;;;;12.68;4.00;;;16.10;91.30;;;;;;5053830;28;20029;-90
2022/12/31 04:02:52;;;;;;;9.77;2.95;;;16.10;91.30;;;;;;5053826;28;20390;-88
2022/12/31 04:05:18;;;;;;;13.68;3.47;;;16.10;91.30;;;;;;5068346;28;20366;-87
2022/12/31 04:07:44;;;;;;;7.55;3.35;;;16.10;91.40;;;;;;5052611;28;20086;-88
2022/12/31 04:10:12;;;;;;;11.30;3.40;;;16.10;91.30;;;;;;5052437;28;20502;-87
2022/12/31 04:12:38;;;;;;;7.00;2.90;;;16.10;91.40;;;;;;5052205;28;20034;-86
2022/12/31 04:15:05;;;;;;;13.30;4.22;;;16.10;91.40;;;;;;5071058;28;20443;-88
2022/12/31 04:17:31;;;;;;;10.00;3.00;;;16.10;91.50;;;;;;5068207;28;20111;-88
2022/12/31 04:19:56;;;;;;;15.25;3.20;;;16.10;91.50;;;;;;5070218;28;20167;-88
2022/12/31 04:22:22;;;;;;;11.10;3.15;;;16.10;91.50;;;;;;5057617;28;20049;-87
2022/12/31 04:24:48;;;;;;;12.43;3.33;;;16.20;91.50;;;;;;5055087;28;20053;-87
2022/12/31 04:27:14;;;;;;;7.90;3.45;;;16.10;91.40;;;;;;5052070;28;20032;-88
2022/12/31 04:29:39;;;;;;;7.43;2.78;;;16.10;91.50;;;;;;5051999;28;20490;-87
2022/12/31 04:32:06;;;;;;;7.57;3.03;;;16.10;91.50;;;;;;5052071;28;20059;-88
2022/12/31 04:34:32;;;;;;;9.30;2.70;;;16.10;91.50;;;;;;5065678;28;20074;-88
2022/12/31 04:36:59;;;;;;;6.25;2.92;;;16.10;91.50;;;;;;5072062;28;20029;-87
2022/12/31 04:39:24;;;;;;;5.88;2.65;;;16.10;91.50;;;;;;5054508;28;20024;-87
2022/12/31 04:41:50;;;;;;;14.18;3.10;;;16.10;91.50;;;;;;5051902;28;20051;-88
2022/12/31 04:44:16;;;;;;;8.45;3.35;;;16.10;91.50;;;;;;5064394;28;20020;-86
2022/12/31 04:46:42;;;;;;;7.10;3.25;;;16.10;91.50;;;;;;5071752;28;20393;-87
2022/12/31 04:49:07;;;;;;;14.30;3.42;;;16.10;91.50;;;;;;5071737;28;20028;-87
2022/12/31 04:51:33;;;;;;;7.93;2.47;;;16.10;91.60;;;;;;5072639;28;20443;-87
2022/12/31 04:53:59;;;;;;;15.48;3.58;;;16.10;91.60;;;;;;5072790;28;20021;-88
2022/12/31 04:56:25;;;;;;;7.18;2.92;;;16.10;91.60;;;;;;5071604;28;20024;-88
2022/12/31 04:58:51;;;;;;;10.73;2.80;;;16.10;91.50;;;;;;5055074;28;20029;-87
2022/12/31 05:01:17;;;;;;;5.30;2.35;;;16.10;91.50;;;;;;5051404;28;20028;-87
2022/12/31 05:03:43;;;;;;;4.28;2.17;;;16.10;91.50;;;;;;5070931;28;20036;-88
2022/12/31 05:06:13;;;;;;;6.95;2.65;;;16.10;91.60;;;;;;5071522;28;20408;-86
2022/12/31 05:08:39;;;;;;;5.28;2.38;;;16.10;91.50;;;;;;5071439;28;20132;-87
2022/12/31 05:11:05;;;;;;;16.90;2.92;;;16.10;91.60;;;;;;5071311;28;20116;-88
2022/12/31 05:13:30;;;;;;;8.10;2.38;;;16.10;91.80;;;;;;5071634;28;20514;-87
2022/12/31 05:15:56;;;;;;;10.50;2.85;;;16.10;91.80;;;;;;5071429;28;20111;-87
2022/12/31 05:18:22;;;;;;;6.63;3.05;;;16.20;91.90;;;;;;5071313;28;20033;-88
2022/12/31 05:20:48;;;;;;;10.98;2.60;;;16.10;91.90;;;;;;5054392;28;20048;-88
2022/12/31 05:23:15;;;;;;;20.10;3.85;;;16.10;91.90;;;;;;5070911;28;20831;-88
2022/12/31 05:25:43;;;;;;;9.82;2.33;;;16.20;91.90;;;;;;5071955;28;20025;-88
2022/12/31 05:28:08;;;;;;;13.40;2.35;;;16.20;91.90;;;;;;5066439;28;20020;-87
2022/12/31 05:30:34;;;;;;;10.63;2.78;;;16.20;91.90;;;;;;5058009;28;20024;-87
2022/12/31 05:33:00;;;;;;;7.50;2.40;;;16.20;91.80;;;;;;5072342;28;20032;-88
2022/12/31 05:35:25;;;;;;;10.40;2.30;;;16.20;92.10;;;;;;5053013;28;20108;-86
2022/12/31 05:37:51;;;;;;;7.90;2.60;;;16.20;91.90;;;;;;5052498;28;20060;-88
2022/12/31 05:40:17;;;;;;;13.32;2.88;;;16.30;91.80;;;;;;5050872;28;20028;-88
2022/12/31 05:42:43;;;;;;;10.77;2.40;;;16.30;91.80;;;;;;5050799;28;20017;-87
2022/12/31 05:45:12;;;;;;;11.25;2.05;;;16.30;91.80;;;;;;5051134;28;20025;-88
2022/12/31 05:47:39;;;;;;;4.28;2.10;;;16.30;91.80;;;;;;5050973;28;20048;-87
2022/12/31 05:50:05;;;;;;;17.63;2.90;;;16.30;91.90;;;;;;5052188;28;20021;-88
2022/12/31 05:52:31;;;;;;;4.28;2.20;;;16.30;91.90;;;;;;5050831;28;20028;-88
2022/12/31 05:54:56;;;;;;;7.30;2.15;;;16.30;92.00;;;;;;5061146;28;20024;-89
2022/12/31 05:57:22;;;;;;;6.18;2.55;;;16.30;91.90;;;;;;5071011;28;20102;-88
2022/12/31 05:59:48;;;;;;;8.25;2.80;;;16.40;92.00;;;;;;5071030;28;20060;-89
2022/12/31 06:02:14;;;;;;;3.72;1.88;;;16.40;91.90;;;;;;5070773;28;20025;-88
2022/12/31 06:04:39;;;;;;;6.45;2.05;;;16.40;91.80;;;;;;5057049;28;20029;-87
2022/12/31 06:07:05;;;;;;;7.88;2.75;;;16.40;91.90;;;;;;5050862;28;20108;-89
2022/12/31 06:09:30;;;;;;;10.45;2.00;;;16.40;91.90;;;;;;5051084;28;20072;-88
2022/12/31 06:11:56;;;;;;;10.38;2.40;;;16.40;91.90;;;;;;5052235;28;20052;-87
2022/12/31 06:14:22;;;;;;;4.82;1.83;;;16.40;91.90;;;;;;5062191;28;20478;-89
2022/12/31 06:16:47;;;;;;;4.70;2.15;;;16.40;91.80;;;;;;5060018;28;20020;-87
2022/12/31 06:19:13;;;;;;;6.97;2.22;;;16.40;91.80;;;;;;5050714;28;20064;-87
2022/12/31 06:21:38;;;;;;;6.75;2.22;;;16.40;91.80;;;;;;5051894;28;20385;-87
2022/12/31 06:24:04;;;;;;;4.38;2.10;;;16.50;91.90;;;;;;5050810;28;20036;-89
2022/12/31 06:26:29;;;;;;;4.90;2.30;;;16.50;91.80;;;;;;5054868;28;20033;-88
2022/12/31 06:28:55;;;;;;;3.67;1.75;;;16.50;91.80;;;;;;5050788;28;20032;-88
2022/12/31 06:31:21;;;;;;;4.13;2.05;;;16.50;91.80;;;;;;5060917;28;20040;-87
2022/12/31 06:33:46;;;;;;;4.95;2.13;;;16.50;91.80;;;;;;5061409;28;20077;-88
2022/12/31 06:36:14;;;;;;;9.95;2.30;;;16.50;91.80;;;;;;5052128;28;20040;-87
2022/12/31 06:38:41;;;;;;;6.63;1.80;;;16.50;91.70;;;;;;5070497;28;20033;-87
2022/12/31 06:41:11;;;;;;;12.45;2.45;;;16.50;91.70;;;;;;5067080;28;20029;-88
2022/12/31 06:43:37;;;;;;;;;;;16.50;91.80;;;;;;5076097;28;20025;-87
2022/12/31 06:46:04;;;;;;;6.20;2.05;;;16.60;91.70;;;;;;5074561;28;20003;-89
2022/12/31 06:48:30;;;;;;;8.70;2.20;;;16.60;91.70;;;;;;5075752;28;20028;-88
2022/12/31 06:50:56;;;;;;;6.28;2.17;;;16.60;91.70;;;;;;5074979;28;20162;-87
2022/12/31 06:53:22;;;;;;;10.48;1.98;;;16.60;91.70;;;;;;5074793;28;20024;-88
2022/12/31 06:55:48;;;;;;;16.90;2.00;;;16.60;91.80;;;;;;5074036;28;20028;-88
2022/12/31 06:58:15;;;;;;;14.40;1.98;;;16.60;91.70;;;;;;5074846;28;20078;-87
2022/12/31 07:01:03;;;;;;;14.30;2.78;;;16.70;91.80;;;;;;5057253;28;20021;-87
2022/12/31 07:03:57;;;;;;;8.40;3.03;;;16.70;91.70;;;;;;5069815;28;20115;-87
2022/12/31 07:06:45;;;;;;;12.32;2.25;;;16.60;91.70;;;;;;5064669;28;20029;-89
2022/12/31 07:09:23;;;;;;;4.70;1.83;;;16.70;91.80;;;;;;5058229;28;20040;-90
2022/12/31 07:12:23;;;;;;;9.70;2.33;;;16.70;91.70;;;;;;5066958;28;20017;-88
2022/12/31 07:15:19;;;;;;;5.22;2.28;;;16.70;91.60;;;;;;5051040;28;20037;-86
2022/12/31 07:18:04;;;;;;;11.73;2.33;;;16.70;91.60;;;;;;5054853;28;20029;-89
2022/12/31 07:20:30;;;;;;;9.00;2.85;;;16.70;91.60;;;;;;5070288;28;20060;-86
2022/12/31 07:22:55;;;;;;;6.70;1.98;;;16.70;91.60;;;;;;5063144;28;20059;-87
2022/12/31 07:25:22;;;;;;;6.30;1.90;;;16.60;91.50;;;;;;5073323;28;20111;-90
2022/12/31 07:28:06;;;;;;;8.18;2.03;;;16.60;91.50;;;;;;5072537;28;20063;-87
2022/12/31 07:30:47;;;;;;;5.60;2.05;;;16.60;91.50;;;;;;5053198;28;20486;-88
2022/12/31 07:33:34;;;;;;;8.13;1.77;;;16.60;91.50;;;;;;5053396;28;20067;-89
2022/12/31 07:36:27;;;;;;;9.25;1.98;;;16.60;91.50;;;;;;5069694;28;20024;-89
2022/12/31 07:39:00;;;;;;;6.03;1.80;;;16.60;91.40;;;;;;5053069;28;20482;-86
2022/12/31 07:41:56;;;;;;;3.90;2.15;;;16.60;91.40;;;;;;5053006;28;20051;-90
2022/12/31 07:44:39;;;;;;;5.05;1.60;;;16.60;91.40;;;;;;5053168;28;20070;-89
2022/12/31 07:47:21;;;;;;;5.35;1.60;;;16.60;91.40;;;;;;5053460;28;20021;-89
2022/12/31 07:49:47;;;;;;;4.03;1.48;;;16.60;91.40;;;;;;5069065;28;20021;-89
2022/12/31 07:52:13;;;;;;;5.80;1.75;;;16.60;91.30;;;;;;5072957;28;20036;-90
2022/12/31 07:54:39;;;;;;;10.98;2.05;;;16.70;91.40;;;;;;5072444;28;20025;-89
2022/12/31 07:57:04;;;;;;;7.68;2.25;;;16.70;91.40;;;;;;5063773;28;20437;-88
2022/12/31 07:59:52;;;;;;;14.32;1.88;;;16.70;91.40;;;;;;5072965;28;20473;-87
2022/12/31 08:02:39;;;;;;;13.65;2.05;;;16.70;91.40;;;;;;5057224;28;20028;-85
2022/12/31 08:05:14;;;;;;;13.45;3.45;;;16.70;91.10;;;;;;5070550;28;20373;-86
2022/12/31 08:07:57;;;;;;;15.20;2.10;;;16.60;90.70;;;;;;5066492;28;20514;-85
2022/12/31 08:10:28;;;;;;;13.13;1.92;;;16.60;90.40;;;;;;5064096;28;20020;-88
2022/12/31 08:13:00;;;;;;;10.48;2.50;;;16.60;90.00;;;;;;5061863;28;20017;-87
2022/12/31 08:15:26;;;;;;;3.67;1.25;;;16.50;89.40;;;;;;5073565;28;20025;-84
2022/12/31 08:17:52;;;;;;;5.03;1.50;;;16.50;88.70;;;;;;5059497;28;20029;-88
2022/12/31 08:20:18;;;;;;;10.75;2.78;;;16.40;88.50;;;;;;5069314;28;20025;-85
2022/12/31 08:23:11;;;;;;;2.25;1.02;;;16.40;88.20;;;;;;5061667;28;20024;-86
2022/12/31 08:25:57;;;;;;;1.35;1.10;;;16.40;87.80;;;;;;5066850;28;20037;-86
2022/12/31 08:28:35;;;;;;;2.22;1.00;;;16.50;87.60;;;;;;5049271;28;20454;-85
2022/12/31 08:31:16;;;;;;;2.00;0.90;;;16.50;86.70;;;;;;5062211;28;20017;-86
2022/12/31 08:33:54;;;;;;;2.38;1.20;;;16.40;86.60;;;;;;5065698;28;20031;-86
2022/12/31 08:36:45;;;;;;;5.25;1.17;;;16.40;86.60;;;;;;5058189;28;20098;-84
2022/12/31 08:39:53;;;;;;;1.85;1.15;;;16.40;86.80;;;;;;5067265;28;20028;-82
2022/12/31 08:42:29;;;;;;;1.67;1.35;;;16.50;87.50;;;;;;5073031;28;20027;-83
2022/12/31 08:44:58;;;;;;;7.03;1.30;;;16.50;87.30;;;;;;5064270;28;20021;-84
2022/12/31 08:47:42;;;;;;;1.10;1.00;;;16.50;87.00;;;;;;5072894;28;20059;-85
2022/12/31 08:50:17;;;;;;;0.75;0.75;;;16.50;87.00;;;;;;5072584;28;20024;-85
2022/12/31 08:52:44;;;;;;;2.42;1.10;;;16.40;86.20;;;;;;5064621;28;20477;-84
2022/12/31 08:55:15;;;;;;;3.67;0.95;;;16.40;86.60;;;;;;5052144;28;20087;-84
2022/12/31 08:58:12;;;;;;;1.52;1.02;;;16.40;86.30;;;;;;5052315;28;20394;-85
2022/12/31 09:00:40;;;;;;;1.10;1.00;;;16.40;86.30;;;;;;5064072;28;20379;-86
2022/12/31 09:03:24;;;;;;;1.15;0.88;;;16.40;86.10;;;;;;5071619;28;20032;-86
2022/12/31 09:06:18;;;;;;;1.30;0.80;;;16.40;86.00;;;;;;5072400;28;20032;-88
2022/12/31 09:08:55;;;;;;;0.80;0.80;;;16.40;85.80;;;;;;5050743;28;20562;-84
2022/12/31 09:11:38;;;;;;;0.93;0.77;;;16.40;85.80;;;;;;5071326;28;20559;-83
2022/12/31 09:14:19;;;;;;;3.03;1.17;;;16.40;85.60;;;;;;5071703;28;20082;-86
2022/12/31 09:17:07;;;;;;;1.45;1.10;;;16.30;85.30;;;;;;5070929;28;20036;-84
2022/12/31 09:19:33;;;;;;;0.90;0.82;;;16.30;85.50;;;;;;5056286;28;20083;-83
2022/12/31 09:21:59;;;;;;;0.98;0.82;;;16.30;85.30;;;;;;5070428;28;20481;-83
2022/12/31 09:24:24;;;;;;;2.05;1.00;;;16.30;85.80;;;;;;5071405;28;20068;-84
2022/12/31 09:26:55;;;;;;;2.08;0.73;;;16.30;85.40;;;;;;5071546;28;20048;-85
2022/12/31 09:29:29;;;;;;;;;;;16.30;85.00;;;;;;5064852;28;20103;-85
2022/12/31 09:32:05;;;;;;;5.13;1.10;;;16.30;85.60;;;;;;5058864;28;19910;-90
2022/12/31 09:34:47;;;;;;;1.35;1.13;;;16.30;85.10;;;;;;5051536;28;20029;-85
2022/12/31 09:37:19;;;;;;;3.13;1.13;;;16.20;85.00;;;;;;5056764;28;20063;-85
2022/12/31 09:39:47;;;;;;;1.17;0.93;;;16.30;85.20;;;;;;5065769;28;20021;-84
2022/12/31 09:42:32;;;;;;;2.20;1.08;;;16.30;85.30;;;;;;5061147;28;20025;-85
2022/12/31 09:45:27;;;;;;;0.95;0.85;;;16.30;85.00;;;;;;5071508;28;20024;-84
2022/12/31 09:47:55;;;;;;;1.98;0.98;;;16.20;84.90;;;;;;5062264;28;20108;-83
2022/12/31 09:50:55;;;;;;;6.72;1.20;;;16.20;84.80;;;;;;5066953;28;20037;-86
2022/12/31 09:53:39;;;;;;;4.23;1.07;;;16.20;85.00;;;;;;5071506;28;20401;-85
2022/12/31 09:56:26;;;;;;;1.25;1.00;;;16.20;85.00;;;;;;5071796;28;20031;-89
2022/12/31 09:59:09;;;;;;;1.40;0.98;;;16.20;84.90;;;;;;5055993;28;20491;-86
2022/12/31 10:01:50;;;;;;;0.90;0.90;;;16.30;85.30;;;;;;5065360;28;20524;-86
2022/12/31 10:04:40;;;;;;;0.90;0.90;;;16.20;84.80;;;;;;5064243;28;20021;-85
2022/12/31 10:07:23;;;;;;;;;;;16.30;84.80;;;;;;5071354;28;20039;-89
2022/12/31 10:09:51;;;;;;;2.97;0.80;;;16.20;85.40;;;;;;5070557;28;19960;-84
2022/12/31 10:12:45;;;;;;;2.83;0.98;;;16.30;85.30;;;;;;5058349;28;20482;-86
2022/12/31 10:15:34;;;;;;;1.85;1.02;;;16.30;85.30;;;;;;5073539;28;20488;-84
2022/12/31 10:18:44;;;;;;;1.70;0.90;;;16.30;85.70;;;;;;5070886;28;20036;-86
2022/12/31 10:21:30;;;;;;;1.23;0.90;;;16.30;85.70;;;;;;5069075;28;20028;-86
2022/12/31 10:24:26;;;;;;;7.97;1.05;;;16.30;85.60;;;;;;5067659;28;20017;-85
2022/12/31 10:27:12;;;;;;;0.82;0.75;;;16.40;85.90;;;;;;5055603;28;20162;-84
2022/12/31 10:29:47;;;;;;;2.58;1.00;;;16.40;85.80;;;;;;5056266;28;20016;-85
2022/12/31 10:32:13;;;;;;;0.90;0.90;;;16.30;86.00;;;;;;5069047;28;20025;-85
2022/12/31 10:34:46;;;;;;;1.13;0.82;;;16.40;86.30;;;;;;5071395;28;20028;-86
2022/12/31 10:37:36;;;;;;;0.93;0.80;;;16.40;86.20;;;;;;5060609;28;20032;-83
2022/12/31 10:40:08;;;;;;;2.42;0.98;;;16.40;86.30;;;;;;5016661;28;20036;-85
2022/12/31 10:43:09;;;;;;;1.60;1.00;;;16.40;86.10;;;;;;5056052;28;20020;-84
2022/12/31 10:45:40;;;;;;;1.48;0.70;;;16.50;85.80;;;;;;5068988;28;20062;-84
2022/12/31 10:48:28;;;;;;;2.38;0.70;;;16.50;85.60;;;;;;5072701;28;20020;-85
2022/12/31 10:51:17;;;;;;;0.80;0.77;;;16.50;86.00;;;;;;5063103;28;20028;-84
2022/12/31 10:54:08;;;;;;;1.85;0.95;;;16.50;86.20;;;;;;5067007;28;20027;-85
2022/12/31 10:56:56;;;;;;;0.75;0.60;;;16.50;86.00;;;;;;5062820;28;20520;-83
2022/12/31 10:59:49;;;;;;;0.98;0.77;;;16.50;85.50;;;;;;5054156;28;20033;-85
2022/12/31 11:02:43;;;;;;;1.23;0.82;;;16.50;85.50;;;;;;5070496;28;20044;-85
2022/12/31 11:05:34;;;;;;;0.70;0.70;;;16.60;85.70;;;;;;5053806;28;20044;-85
2022/12/31 11:08:11;;;;;;;1.10;0.90;;;16.60;85.80;;;;;;5060852;28;20096;-84
2022/12/31 11:10:46;;;;;;;1.10;0.80;;;16.60;85.80;;;;;;5074715;28;20023;-87
2022/12/31 11:13:41;;;;;;;1.20;0.90;;;16.70;85.90;;;;;;5067370;28;20035;-85
2022/12/31 11:16:16;;;;;;;3.72;2.08;;;16.70;87.30;;;;;;5061658;28;20028;-87
2022/12/31 11:19:06;;;;;;;2.30;0.98;;;16.80;87.80;;;;;;5062433;28;20120;-84
2022/12/31 11:21:48;;;;;;;1.13;0.93;;;16.90;87.40;;;;;;5053605;28;20096;-89
2022/12/31 11:37:36;;;;;;;4.47;1.08;;;17.10;85.50;;;;;;5625576;22;20348;-89
2022/12/31 11:40:18;;;;;;;0.90;0.80;;;17.10;86.10;;;;;;5052939;28;20100;-93
2022/12/31 11:42:55;;;;;;;1.63;0.90;;;17.10;86.00;;;;;;5056195;28;20036;-92
2022/12/31 11:45:45;;;;;;;2.42;1.23;;;17.10;85.50;;;;;;5055518;28;20028;-92
2022/12/31 11:48:15;;;;;;;52.03;17.00;;;17.20;85.50;;;;;;5067562;28;20017;-92
2022/12/31 11:50:49;;;;;;;;;;;17.30;85.20;;;;;;5073512;28;20028;-91
2022/12/31 11:53:30;;;;;;;67.43;19.17;;;17.30;84.90;;;;;;5058266;28;19905;-89
2022/12/31 11:56:27;;;;;;;67.20;16.17;;;17.50;84.10;;;;;;5050961;28;20392;-91
2022/12/31 11:58:55;;;;;;;188.68;39.60;;;17.50;83.50;;;;;;5044347;28;20024;-91
2022/12/31 12:01:36;;;;;;;128.85;33.25;;;17.50;85.10;;;;;;5073560;28;20035;-92
2022/12/31 12:04:02;;;;;;;127.25;31.63;;;17.60;84.40;;;;;;5074043;28;20020;-89
2022/12/31 12:06:31;;;;;;;100.72;24.80;;;17.60;84.40;;;;;;5055711;28;20020;-90
2022/12/31 12:11:36;;;;;;;103.97;24.27;;;17.70;84.20;;;;;;5369393;22;20048;-92
2022/12/31 12:14:19;;;;;;;75.40;17.67;;;17.70;84.30;;;;;;5082357;28;20047;-90
2022/12/31 12:16:45;;;;;;;47.72;9.52;;;17.60;83.70;;;;;;5056484;28;20025;-91
2022/12/31 12:19:17;;;;;;;38.92;8.80;;;17.60;83.50;;;;;;5075329;28;20138;-91
2022/12/31 12:21:47;;;;;;;30.77;6.88;;;17.60;83.90;;;;;;5074137;28;20024;-91
2022/12/31 12:24:28;;;;;;;24.65;6.82;;;17.60;84.10;;;;;;5067297;28;20016;-90
2022/12/31 12:26:54;;;;;;;18.65;5.30;;;17.60;84.00;;;;;;5054007;28;20025;-91
2022/12/31 12:29:27;;;;;;;16.70;4.78;;;17.60;83.90;;;;;;5053162;28;20028;-88
2022/12/31 12:32:01;;;;;;;19.80;3.88;;;17.50;83.70;;;;;;5069947;28;20392;-92
2022/12/31 12:34:29;;;;;;;15.88;3.20;;;17.50;83.80;;;;;;5072473;28;20025;-90
2022/12/31 12:36:55;;;;;;;6.88;2.00;;;17.50;83.70;;;;;;5072244;28;20021;-89
2022/12/31 12:39:24;;;;;;;8.07;2.58;;;17.60;83.70;;;;;;5060401;28;20032;-91
2022/12/31 12:42:04;;;;;;;10.23;2.47;;;17.60;84.00;;;;;;5032150;28;20033;-90
2022/12/31 12:44:31;;;;;;;4.95;2.10;;;17.60;84.20;;;;;;5035069;28;20512;-88
2022/12/31 12:46:57;;;;;;;6.93;2.25;;;17.60;84.30;;;;;;5064984;28;20020;-88
2022/12/31 12:49:38;;;;;;;6.65;2.40;;;17.60;84.50;;;;;;5071782;28;20017;-89
2022/12/31 12:52:27;;;;;;;7.85;1.88;;;17.60;84.80;;;;;;5071944;28;20504;-87
2022/12/31 12:55:18;;;;;;;8.85;2.47;;;17.60;84.90;;;;;;5071895;28;20527;-89
2022/12/31 12:58:13;;;;;;;8.75;2.53;;;17.60;85.00;;;;;;5032221;28;20022;-89
2022/12/31 13:01:17;;;;;;;6.78;1.83;;;17.60;85.20;;;;;;5008033;28;20098;-87
2022/12/31 13:04:16;;;;;;;6.47;1.80;;;17.60;85.40;;;;;;5073004;28;20028;-89
2022/12/31 13:07:15;;;;;;;4.03;1.98;;;17.60;85.60;;;;;;5071835;28;20033;-89
2022/12/31 13:10:30;;;;;;;7.65;1.95;;;17.60;85.70;;;;;;5052842;28;20029;-91
2022/12/31 13:13:20;;;;;;;4.88;2.10;;;17.60;85.90;;;;;;4975045;28;20027;-85
2022/12/31 13:16:03;;;;;;;4.75;1.85;;;17.60;85.90;;;;;;4975117;28;20022;-90
2022/12/31 13:18:59;;;;;;;5.65;1.80;;;17.60;86.00;;;;;;4976390;28;20030;-86
2022/12/31 13:21:47;;;;;;;4.40;1.83;;;17.60;86.10;;;;;;4991311;28;20034;-89
2022/12/31 13:24:42;;;;;;;3.97;1.83;;;17.60;86.20;;;;;;4975494;28;20031;-88
2022/12/31 13:27:32;;;;;;;6.82;2.30;;;17.60;86.20;;;;;;4983166;28;20904;-87
2022/12/31 13:30:01;;;;;;;9.05;2.00;;;17.60;86.30;;;;;;4978139;28;20073;-84
2022/12/31 13:32:41;;;;;;;4.25;1.60;;;17.60;86.40;;;;;;4993186;28;20035;-85
2022/12/31 13:35:19;;;;;;;;;;;17.60;86.40;;;;;;4972028;28;20562;-87
2022/12/31 13:37:46;;;;;;;4.90;1.75;;;17.60;86.50;;;;;;4980039;28;19913;-90
2022/12/31 13:40:29;;;;;;;7.18;1.63;;;17.60;86.60;;;;;;4984330;28;20058;-85
2022/12/31 13:43:04;;;;;;;6.03;1.70;;;17.60;87.30;;;;;;4984167;28;20082;-88